sensor_id;sensor_type;location;lat;lon;timestamp;temperature;humidity
4215;DHT22;2121;48.062;7.850;2023-07-08T00:00:23;18.90;99.90
4215;DHT22;2121;48.062;7.850;2023-07-08T00:02:50;18.90;99.90
4215;DHT22;2121;48.062;7.850;2023-07-08T00:05:18;18.90;99.90
4215;DHT22;2121;48.062;7.850;2023-07-08T00:07:45;18.80;99.90
4215;DHT22;2121;48.062;7.850;2023-07-08T00:10:23;18.80;99.90
4215;DHT22;2121;48.062;7.850;2023-07-08T00:12:52;18.90;99.90
4215;DHT22;2121;48.062;7.850;2023-07-08T00:15:25;18.90;99.90
4215;DHT22;2121;48.062;7.850;2023-07-08T00:17:52;18.80;99.90
4215;DHT22;2121;48.062;7.850;2023-07-08T00:23:11;18.60;99.90
4215;DHT22;2121;48.062;7.850;2023-07-08T00:25:37;18.60;99.90
4215;DHT22;2121;48.062;7.850;2023-07-08T00:28:15;18.60;99.90
4215;DHT22;2121;48.062;7.850;2023-07-08T00:30:43;18.60;99.90
4215;DHT22;2121;48.062;7.850;2023-07-08T00:33:09;18.50;99.90
4215;DHT22;2121;48.062;7.850;2023-07-08T00:35:36;18.40;99.90
4215;DHT22;2121;48.062;7.850;2023-07-08T00:38:25;18.50;99.90
4215;DHT22;2121;48.062;7.850;2023-07-08T00:41:12;18.50;99.90
4215;DHT22;2121;48.062;7.850;2023-07-08T00:43:44;18.50;99.90
4215;DHT22;2121;48.062;7.850;2023-07-08T00:49:23;18.60;99.90
4215;DHT22;2121;48.062;7.850;2023-07-08T00:51:51;18.50;99.90
4215;DHT22;2121;48.062;7.850;2023-07-08T00:54:18;18.60;99.90
4215;DHT22;2121;48.062;7.850;2023-07-08T00:56:59;18.50;99.90
4215;DHT22;2121;48.062;7.850;2023-07-08T00:59:43;18.60;99.90
4215;DHT22;2121;48.062;7.850;2023-07-08T01:02:12;18.60;99.90
4215;DHT22;2121;48.062;7.850;2023-07-08T01:04:54;18.60;99.90
4215;DHT22;2121;48.062;7.850;2023-07-08T01:07:25;18.50;99.90
4215;DHT22;2121;48.062;7.850;2023-07-08T01:09:57;18.50;99.90
4215;DHT22;2121;48.062;7.850;2023-07-08T01:12:36;18.40;99.90
4215;DHT22;2121;48.062;7.850;2023-07-08T01:15:08;18.50;99.90
4215;DHT22;2121;48.062;7.850;2023-07-08T01:17:35;18.60;99.90
4215;DHT22;2121;48.062;7.850;2023-07-08T01:20:03;18.50;99.90
4215;DHT22;2121;48.062;7.850;2023-07-08T01:22:41;18.50;99.90
4215;DHT22;2121;48.062;7.850;2023-07-08T01:25:09;18.40;99.90
4215;DHT22;2121;48.062;7.850;2023-07-08T01:27:39;18.30;99.90
4215;DHT22;2121;48.062;7.850;2023-07-08T01:30:07;18.20;99.90
4215;DHT22;2121;48.062;7.850;2023-07-08T01:32:37;18.10;99.90
4215;DHT22;2121;48.062;7.850;2023-07-08T01:35:05;18.00;99.90
4215;DHT22;2121;48.062;7.850;2023-07-08T01:37:37;18.00;99.90
4215;DHT22;2121;48.062;7.850;2023-07-08T01:42:44;18.00;99.90
4215;DHT22;2121;48.062;7.850;2023-07-08T01:45:12;18.00;99.90
4215;DHT22;2121;48.062;7.850;2023-07-08T01:47:41;17.90;99.90
4215;DHT22;2121;48.062;7.850;2023-07-08T01:50:09;18.00;99.90
4215;DHT22;2121;48.062;7.850;2023-07-08T01:52:36;18.00;99.90
4215;DHT22;2121;48.062;7.850;2023-07-08T01:55:03;18.10;99.90
4215;DHT22;2121;48.062;7.850;2023-07-08T01:57:29;18.00;99.90
4215;DHT22;2121;48.062;7.850;2023-07-08T01:59:54;18.00;99.90
4215;DHT22;2121;48.062;7.850;2023-07-08T02:02:20;18.00;99.90
4215;DHT22;2121;48.062;7.850;2023-07-08T02:04:47;18.10;99.90
4215;DHT22;2121;48.062;7.850;2023-07-08T02:07:13;18.10;99.90
4215;DHT22;2121;48.062;7.850;2023-07-08T02:09:38;18.20;99.90
4215;DHT22;2121;48.062;7.850;2023-07-08T02:12:04;18.20;99.90
4215;DHT22;2121;48.062;7.850;2023-07-08T02:14:30;18.20;99.90
4215;DHT22;2121;48.062;7.850;2023-07-08T02:16:56;18.10;99.90
4215;DHT22;2121;48.062;7.850;2023-07-08T02:19:22;18.10;99.90
4215;DHT22;2121;48.062;7.850;2023-07-08T02:21:48;18.10;99.90
4215;DHT22;2121;48.062;7.850;2023-07-08T02:24:13;18.20;99.90
4215;DHT22;2121;48.062;7.850;2023-07-08T02:26:42;18.20;99.90
4215;DHT22;2121;48.062;7.850;2023-07-08T02:29:08;18.30;99.90
4215;DHT22;2121;48.062;7.850;2023-07-08T02:31:33;18.40;99.90
4215;DHT22;2121;48.062;7.850;2023-07-08T02:33:59;18.30;99.90
4215;DHT22;2121;48.062;7.850;2023-07-08T02:36:27;18.20;99.90
4215;DHT22;2121;48.062;7.850;2023-07-08T02:38:53;18.20;99.90
4215;DHT22;2121;48.062;7.850;2023-07-08T02:41:19;18.20;99.90
4215;DHT22;2121;48.062;7.850;2023-07-08T02:43:45;18.20;99.90
4215;DHT22;2121;48.062;7.850;2023-07-08T02:46:10;18.20;99.90
4215;DHT22;2121;48.062;7.850;2023-07-08T02:48:36;18.20;99.90
4215;DHT22;2121;48.062;7.850;2023-07-08T02:51:04;18.30;99.90
4215;DHT22;2121;48.062;7.850;2023-07-08T02:53:31;18.40;99.90
4215;DHT22;2121;48.062;7.850;2023-07-08T02:55:57;18.50;99.90
4215;DHT22;2121;48.062;7.850;2023-07-08T02:58:23;18.60;99.90
4215;DHT22;2121;48.062;7.850;2023-07-08T03:00:53;18.80;99.90
4215;DHT22;2121;48.062;7.850;2023-07-08T03:03:20;18.90;99.90
4215;DHT22;2121;48.062;7.850;2023-07-08T03:06:01;19.20;99.90
4215;DHT22;2121;48.062;7.850;2023-07-08T03:08:29;19.30;99.90
4215;DHT22;2121;48.062;7.850;2023-07-08T03:11:01;19.30;99.90
4215;DHT22;2121;48.062;7.850;2023-07-08T03:13:29;19.40;99.90
4215;DHT22;2121;48.062;7.850;2023-07-08T03:15:56;19.30;99.90
4215;DHT22;2121;48.062;7.850;2023-07-08T03:18:23;19.30;99.90
4215;DHT22;2121;48.062;7.850;2023-07-08T03:20:53;19.10;99.90
4215;DHT22;2121;48.062;7.850;2023-07-08T03:23:21;19.00;99.90
4215;DHT22;2121;48.062;7.850;2023-07-08T03:25:48;18.90;99.90
4215;DHT22;2121;48.062;7.850;2023-07-08T03:28:13;18.90;99.90
4215;DHT22;2121;48.062;7.850;2023-07-08T03:30:43;18.90;99.90
4215;DHT22;2121;48.062;7.850;2023-07-08T03:33:09;18.90;99.90
4215;DHT22;2121;48.062;7.850;2023-07-08T03:35:35;18.90;99.90
4215;DHT22;2121;48.062;7.850;2023-07-08T03:38:02;19.00;99.90
4215;DHT22;2121;48.062;7.850;2023-07-08T03:40:28;19.10;99.90
4215;DHT22;2121;48.062;7.850;2023-07-08T03:42:54;19.20;99.90
4215;DHT22;2121;48.062;7.850;2023-07-08T03:45:20;19.20;99.90
4215;DHT22;2121;48.062;7.850;2023-07-08T03:47:46;19.30;99.90
4215;DHT22;2121;48.062;7.850;2023-07-08T03:50:18;19.60;99.90
4215;DHT22;2121;48.062;7.850;2023-07-08T03:52:46;20.00;99.90
4215;DHT22;2121;48.062;7.850;2023-07-08T03:55:12;20.20;99.90
4215;DHT22;2121;48.062;7.850;2023-07-08T03:57:38;20.40;99.90
4215;DHT22;2121;48.062;7.850;2023-07-08T04:00:05;20.60;99.90
4215;DHT22;2121;48.062;7.850;2023-07-08T04:02:38;20.80;99.90
4215;DHT22;2121;48.062;7.850;2023-07-08T04:05:04;20.90;99.90
4215;DHT22;2121;48.062;7.850;2023-07-08T04:07:31;21.10;99.90
4215;DHT22;2121;48.062;7.850;2023-07-08T04:09:58;21.40;99.90
4215;DHT22;2121;48.062;7.850;2023-07-08T04:12:24;21.50;99.90
4215;DHT22;2121;48.062;7.850;2023-07-08T04:14:50;21.60;99.90
4215;DHT22;2121;48.062;7.850;2023-07-08T04:17:18;21.70;99.90
4215;DHT22;2121;48.062;7.850;2023-07-08T04:19:44;21.70;99.90
4215;DHT22;2121;48.062;7.850;2023-07-08T04:22:10;21.80;99.90
4215;DHT22;2121;48.062;7.850;2023-07-08T04:24:36;21.70;99.90
4215;DHT22;2121;48.062;7.850;2023-07-08T04:27:02;21.50;99.90
4215;DHT22;2121;48.062;7.850;2023-07-08T04:29:29;21.00;99.90
4215;DHT22;2121;48.062;7.850;2023-07-08T04:31:54;20.60;99.90
4215;DHT22;2121;48.062;7.850;2023-07-08T04:34:20;20.20;99.90
4215;DHT22;2121;48.062;7.850;2023-07-08T04:36:46;19.90;99.90
4215;DHT22;2121;48.062;7.850;2023-07-08T04:39:12;19.50;99.90
4215;DHT22;2121;48.062;7.850;2023-07-08T04:41:39;19.30;99.90
4215;DHT22;2121;48.062;7.850;2023-07-08T04:44:12;19.00;99.90
4215;DHT22;2121;48.062;7.850;2023-07-08T04:46:57;18.70;99.90
4215;DHT22;2121;48.062;7.850;2023-07-08T04:49:24;18.50;99.90
4215;DHT22;2121;48.062;7.850;2023-07-08T04:51:53;18.40;99.90
4215;DHT22;2121;48.062;7.850;2023-07-08T04:54:19;18.30;99.90
4215;DHT22;2121;48.062;7.850;2023-07-08T04:56:46;18.20;99.90
4215;DHT22;2121;48.062;7.850;2023-07-08T04:59:15;18.10;99.90
4215;DHT22;2121;48.062;7.850;2023-07-08T05:01:43;18.10;99.90
4215;DHT22;2121;48.062;7.850;2023-07-08T05:04:12;18.10;99.90
4215;DHT22;2121;48.062;7.850;2023-07-08T05:06:39;18.10;99.90
4215;DHT22;2121;48.062;7.850;2023-07-08T05:09:05;18.00;99.90
4215;DHT22;2121;48.062;7.850;2023-07-08T05:11:32;18.00;99.90
4215;DHT22;2121;48.062;7.850;2023-07-08T05:13:58;17.90;99.90
4215;DHT22;2121;48.062;7.850;2023-07-08T05:16:24;18.00;99.90
4215;DHT22;2121;48.062;7.850;2023-07-08T05:18:49;18.00;99.90
4215;DHT22;2121;48.062;7.850;2023-07-08T05:21:16;17.90;99.90
4215;DHT22;2121;48.062;7.850;2023-07-08T05:23:45;17.90;99.90
4215;DHT22;2121;48.062;7.850;2023-07-08T05:26:11;17.90;99.90
4215;DHT22;2121;48.062;7.850;2023-07-08T05:28:37;17.80;99.90
4215;DHT22;2121;48.062;7.850;2023-07-08T05:31:03;17.80;99.90
4215;DHT22;2121;48.062;7.850;2023-07-08T05:33:30;17.80;99.90
4215;DHT22;2121;48.062;7.850;2023-07-08T05:35:57;17.70;99.90
4215;DHT22;2121;48.062;7.850;2023-07-08T05:38:23;17.80;99.90
4215;DHT22;2121;48.062;7.850;2023-07-08T05:40:51;17.80;99.90
4215;DHT22;2121;48.062;7.850;2023-07-08T05:43:20;17.80;99.90
4215;DHT22;2121;48.062;7.850;2023-07-08T05:45:47;17.90;99.90
4215;DHT22;2121;48.062;7.850;2023-07-08T05:48:13;18.00;99.90
4215;DHT22;2121;48.062;7.850;2023-07-08T05:50:39;18.10;99.90
4215;DHT22;2121;48.062;7.850;2023-07-08T05:53:08;18.20;99.90
4215;DHT22;2121;48.062;7.850;2023-07-08T05:55:35;18.30;99.90
4215;DHT22;2121;48.062;7.850;2023-07-08T05:58:00;18.40;99.90
4215;DHT22;2121;48.062;7.850;2023-07-08T06:00:26;18.40;99.90
4215;DHT22;2121;48.062;7.850;2023-07-08T06:02:52;18.40;99.90
4215;DHT22;2121;48.062;7.850;2023-07-08T06:05:18;18.50;99.90
4215;DHT22;2121;48.062;7.850;2023-07-08T06:07:43;18.60;99.90
4215;DHT22;2121;48.062;7.850;2023-07-08T06:10:10;18.80;99.90
4215;DHT22;2121;48.062;7.850;2023-07-08T06:12:35;19.00;99.90
4215;DHT22;2121;48.062;7.850;2023-07-08T06:15:01;19.30;99.90
4215;DHT22;2121;48.062;7.850;2023-07-08T06:17:27;19.60;99.90
4215;DHT22;2121;48.062;7.850;2023-07-08T06:19:53;19.80;99.90
4215;DHT22;2121;48.062;7.850;2023-07-08T06:22:18;19.80;99.90
4215;DHT22;2121;48.062;7.850;2023-07-08T06:24:44;19.80;99.90
4215;DHT22;2121;48.062;7.850;2023-07-08T06:27:10;19.70;99.90
4215;DHT22;2121;48.062;7.850;2023-07-08T06:29:36;19.40;99.90
4215;DHT22;2121;48.062;7.850;2023-07-08T06:32:02;19.30;99.90
4215;DHT22;2121;48.062;7.850;2023-07-08T06:34:28;19.20;99.90
4215;DHT22;2121;48.062;7.850;2023-07-08T06:36:54;19.30;99.90
4215;DHT22;2121;48.062;7.850;2023-07-08T06:39:19;19.50;99.90
4215;DHT22;2121;48.062;7.850;2023-07-08T06:41:45;19.60;99.90
4215;DHT22;2121;48.062;7.850;2023-07-08T06:44:11;19.90;99.90
4215;DHT22;2121;48.062;7.850;2023-07-08T06:46:37;19.90;99.90
4215;DHT22;2121;48.062;7.850;2023-07-08T06:49:03;19.70;99.90
4215;DHT22;2121;48.062;7.850;2023-07-08T06:51:29;19.70;99.90
4215;DHT22;2121;48.062;7.850;2023-07-08T06:53:55;20.10;99.90
4215;DHT22;2121;48.062;7.850;2023-07-08T06:56:21;20.20;99.90
4215;DHT22;2121;48.062;7.850;2023-07-08T06:58:46;20.20;99.90
4215;DHT22;2121;48.062;7.850;2023-07-08T07:01:12;20.20;99.90
4215;DHT22;2121;48.062;7.850;2023-07-08T07:03:39;20.30;99.90
4215;DHT22;2121;48.062;7.850;2023-07-08T07:06:05;20.40;99.90
4215;DHT22;2121;48.062;7.850;2023-07-08T07:08:30;20.50;99.90
4215;DHT22;2121;48.062;7.850;2023-07-08T07:10:56;20.60;99.90
4215;DHT22;2121;48.062;7.850;2023-07-08T07:13:22;20.70;99.90
4215;DHT22;2121;48.062;7.850;2023-07-08T07:15:49;20.50;99.90
4215;DHT22;2121;48.062;7.850;2023-07-08T07:18:15;20.60;99.90
4215;DHT22;2121;48.062;7.850;2023-07-08T07:20:50;20.40;99.90
4215;DHT22;2121;48.062;7.850;2023-07-08T07:23:18;20.40;99.90
4215;DHT22;2121;48.062;7.850;2023-07-08T07:25:45;20.60;99.90
4215;DHT22;2121;48.062;7.850;2023-07-08T07:28:14;20.80;99.90
4215;DHT22;2121;48.062;7.850;2023-07-08T07:30:44;20.90;99.90
4215;DHT22;2121;48.062;7.850;2023-07-08T07:33:11;21.30;99.90
4215;DHT22;2121;48.062;7.850;2023-07-08T07:35:44;21.60;99.90
4215;DHT22;2121;48.062;7.850;2023-07-08T07:38:10;21.70;99.90
4215;DHT22;2121;48.062;7.850;2023-07-08T07:40:36;21.90;99.90
4215;DHT22;2121;48.062;7.850;2023-07-08T07:43:04;22.10;99.90
4215;DHT22;2121;48.062;7.850;2023-07-08T07:45:30;22.20;99.90
4215;DHT22;2121;48.062;7.850;2023-07-08T07:47:56;22.50;99.90
4215;DHT22;2121;48.062;7.850;2023-07-08T07:50:22;22.70;99.90
4215;DHT22;2121;48.062;7.850;2023-07-08T07:52:47;22.90;99.90
4215;DHT22;2121;48.062;7.850;2023-07-08T07:55:13;23.00;99.90
4215;DHT22;2121;48.062;7.850;2023-07-08T07:57:39;23.10;99.90
4215;DHT22;2121;48.062;7.850;2023-07-08T08:00:07;23.10;99.90
4215;DHT22;2121;48.062;7.850;2023-07-08T08:02:36;23.20;99.90
4215;DHT22;2121;48.062;7.850;2023-07-08T08:05:02;23.10;99.90
4215;DHT22;2121;48.062;7.850;2023-07-08T08:07:28;23.20;99.90
4215;DHT22;2121;48.062;7.850;2023-07-08T08:09:54;23.50;99.90
4215;DHT22;2121;48.062;7.850;2023-07-08T08:12:20;24.10;99.90
4215;DHT22;2121;48.062;7.850;2023-07-08T08:14:50;24.30;99.90
4215;DHT22;2121;48.062;7.850;2023-07-08T08:17:16;24.40;99.90
4215;DHT22;2121;48.062;7.850;2023-07-08T08:19:42;24.60;99.90
4215;DHT22;2121;48.062;7.850;2023-07-08T08:22:08;24.60;99.90
4215;DHT22;2121;48.062;7.850;2023-07-08T08:24:34;24.40;99.90
4215;DHT22;2121;48.062;7.850;2023-07-08T08:27:00;24.40;99.90
4215;DHT22;2121;48.062;7.850;2023-07-08T08:29:26;24.40;99.90
4215;DHT22;2121;48.062;7.850;2023-07-08T08:31:51;24.30;99.90
4215;DHT22;2121;48.062;7.850;2023-07-08T08:34:19;24.00;99.90
4215;DHT22;2121;48.062;7.850;2023-07-08T08:36:45;23.90;99.90
4215;DHT22;2121;48.062;7.850;2023-07-08T08:39:11;24.00;99.90
4215;DHT22;2121;48.062;7.850;2023-07-08T08:41:39;23.90;99.90
4215;DHT22;2121;48.062;7.850;2023-07-08T08:44:13;23.70;99.90
4215;DHT22;2121;48.062;7.850;2023-07-08T08:46:51;23.70;99.90
4215;DHT22;2121;48.062;7.850;2023-07-08T08:51:47;23.90;99.90
4215;DHT22;2121;48.062;7.850;2023-07-08T08:54:14;24.20;99.90
4215;DHT22;2121;48.062;7.850;2023-07-08T08:59:57;24.60;99.90
4215;DHT22;2121;48.062;7.850;2023-07-08T09:05:44;25.20;99.90
4215;DHT22;2121;48.062;7.850;2023-07-08T09:10:46;25.80;99.90
4215;DHT22;2121;48.062;7.850;2023-07-08T09:13:35;26.10;99.90
4215;DHT22;2121;48.062;7.850;2023-07-08T09:19:21;26.60;99.90
4215;DHT22;2121;48.062;7.850;2023-07-08T09:21:51;26.70;99.90
4215;DHT22;2121;48.062;7.850;2023-07-08T09:27:15;26.60;99.90
4215;DHT22;2121;48.062;7.850;2023-07-08T09:29:41;26.80;99.90
4215;DHT22;2121;48.062;7.850;2023-07-08T09:32:21;27.00;99.90
4215;DHT22;2121;48.062;7.850;2023-07-08T09:34:54;27.30;99.90
4215;DHT22;2121;48.062;7.850;2023-07-08T09:37:32;27.30;99.90
4215;DHT22;2121;48.062;7.850;2023-07-08T09:40:04;27.20;99.90
4215;DHT22;2121;48.062;7.850;2023-07-08T09:42:50;27.20;99.90
4215;DHT22;2121;48.062;7.850;2023-07-08T09:45:22;27.40;99.90
4215;DHT22;2121;48.062;7.850;2023-07-08T09:47:55;27.50;99.90
4215;DHT22;2121;48.062;7.850;2023-07-08T09:50:27;27.50;99.90
4215;DHT22;2121;48.062;7.850;2023-07-08T09:52:56;27.30;99.90
4215;DHT22;2121;48.062;7.850;2023-07-08T09:55:23;27.50;99.70
4215;DHT22;2121;48.062;7.850;2023-07-08T09:57:51;27.90;98.00
4215;DHT22;2121;48.062;7.850;2023-07-08T10:00:26;28.20;96.60
4215;DHT22;2121;48.062;7.850;2023-07-08T10:03:03;28.40;96.50
4215;DHT22;2121;48.062;7.850;2023-07-08T10:05:36;29.00;96.40
4215;DHT22;2121;48.062;7.850;2023-07-08T10:08:42;29.70;94.40
4215;DHT22;2121;48.062;7.850;2023-07-08T10:11:34;30.10;93.40
4215;DHT22;2121;48.062;7.850;2023-07-08T10:14:31;29.50;93.70
4215;DHT22;2121;48.062;7.850;2023-07-08T10:17:00;29.30;92.90
4215;DHT22;2121;48.062;7.850;2023-07-08T10:19:26;29.10;94.20
4215;DHT22;2121;48.062;7.850;2023-07-08T10:22:13;29.20;94.10
4215;DHT22;2121;48.062;7.850;2023-07-08T10:34:28;30.30;92.80
4215;DHT22;2121;48.062;7.850;2023-07-08T10:43:31;30.60;93.90
4215;DHT22;2121;48.062;7.850;2023-07-08T10:46:26;31.80;92.40
4215;DHT22;2121;48.062;7.850;2023-07-08T10:52:32;31.60;90.20
4215;DHT22;2121;48.062;7.850;2023-07-08T10:55:19;30.80;90.50
4215;DHT22;2121;48.062;7.850;2023-07-08T11:07:22;30.50;89.60
4215;DHT22;2121;48.062;7.850;2023-07-08T11:09:55;31.60;89.80
4215;DHT22;2121;48.062;7.850;2023-07-08T11:12:40;32.00;85.00
4215;DHT22;2121;48.062;7.850;2023-07-08T11:17:49;32.30;81.60
4215;DHT22;2121;48.062;7.850;2023-07-08T11:20:23;31.70;83.40
4215;DHT22;2121;48.062;7.850;2023-07-08T11:23:03;31.30;84.50
4215;DHT22;2121;48.062;7.850;2023-07-08T11:25:36;31.00;85.20
4215;DHT22;2121;48.062;7.850;2023-07-08T11:28:05;31.30;85.40
4215;DHT22;2121;48.062;7.850;2023-07-08T11:30:33;31.80;83.50
4215;DHT22;2121;48.062;7.850;2023-07-08T11:33:05;32.10;83.00
4215;DHT22;2121;48.062;7.850;2023-07-08T11:35:44;32.30;81.60
4215;DHT22;2121;48.062;7.850;2023-07-08T11:38:21;32.20;82.10
4215;DHT22;2121;48.062;7.850;2023-07-08T11:43:24;33.10;78.40
4215;DHT22;2121;48.062;7.850;2023-07-08T11:45:57;33.10;77.30
4215;DHT22;2121;48.062;7.850;2023-07-08T11:48:27;33.30;77.80
4215;DHT22;2121;48.062;7.850;2023-07-08T11:50:56;33.80;75.60
4215;DHT22;2121;48.062;7.850;2023-07-08T11:55:58;35.10;73.30
4215;DHT22;2121;48.062;7.850;2023-07-08T11:58:32;35.40;74.50
4215;DHT22;2121;48.062;7.850;2023-07-08T12:08:53;35.40;65.70
4215;DHT22;2121;48.062;7.850;2023-07-08T12:11:34;35.70;67.30
4215;DHT22;2121;48.062;7.850;2023-07-08T12:14:02;36.10;65.90
4215;DHT22;2121;48.062;7.850;2023-07-08T12:16:30;36.50;66.40
4215;DHT22;2121;48.062;7.850;2023-07-08T12:19:01;37.10;64.70
4215;DHT22;2121;48.062;7.850;2023-07-08T12:21:34;38.00;63.30
4215;DHT22;2121;48.062;7.850;2023-07-08T12:24:07;37.80;60.60
4215;DHT22;2121;48.062;7.850;2023-07-08T12:26:35;36.30;59.70
4215;DHT22;2121;48.062;7.850;2023-07-08T12:29:01;36.60;63.30
4215;DHT22;2121;48.062;7.850;2023-07-08T12:31:27;38.00;62.80
4215;DHT22;2121;48.062;7.850;2023-07-08T12:33:54;39.10;61.10
4215;DHT22;2121;48.062;7.850;2023-07-08T12:36:23;38.50;58.90
4215;DHT22;2121;48.062;7.850;2023-07-08T12:38:51;38.90;58.20
4215;DHT22;2121;48.062;7.850;2023-07-08T12:41:21;38.60;57.60
4215;DHT22;2121;48.062;7.850;2023-07-08T12:43:50;38.40;58.20
4215;DHT22;2121;48.062;7.850;2023-07-08T12:46:18;37.60;57.00
4215;DHT22;2121;48.062;7.850;2023-07-08T12:48:46;38.40;56.40
4215;DHT22;2121;48.062;7.850;2023-07-08T12:51:17;38.90;55.30
4215;DHT22;2121;48.062;7.850;2023-07-08T12:53:49;39.30;55.60
4215;DHT22;2121;48.062;7.850;2023-07-08T12:56:18;39.60;54.30
4215;DHT22;2121;48.062;7.850;2023-07-08T12:58:49;40.10;55.20
4215;DHT22;2121;48.062;7.850;2023-07-08T13:01:21;38.60;55.40
4215;DHT22;2121;48.062;7.850;2023-07-08T13:03:53;39.40;56.60
4215;DHT22;2121;48.062;7.850;2023-07-08T13:06:24;39.50;55.10
4215;DHT22;2121;48.062;7.850;2023-07-08T13:08:52;40.20;55.30
4215;DHT22;2121;48.062;7.850;2023-07-08T13:11:21;41.30;55.30
4215;DHT22;2121;48.062;7.850;2023-07-08T13:13:52;41.40;52.10
4215;DHT22;2121;48.062;7.850;2023-07-08T13:16:23;41.40;53.00
4215;DHT22;2121;48.062;7.850;2023-07-08T13:18:51;41.90;53.40
4215;DHT22;2121;48.062;7.850;2023-07-08T13:21:17;42.50;53.40
4215;DHT22;2121;48.062;7.850;2023-07-08T13:23:43;43.60;51.30
4215;DHT22;2121;48.062;7.850;2023-07-08T13:26:18;43.50;50.10
4215;DHT22;2121;48.062;7.850;2023-07-08T13:28:45;42.90;51.30
4215;DHT22;2121;48.062;7.850;2023-07-08T13:31:21;43.20;50.50
4215;DHT22;2121;48.062;7.850;2023-07-08T13:33:53;43.90;48.80
4215;DHT22;2121;48.062;7.850;2023-07-08T13:36:31;44.10;49.00
4215;DHT22;2121;48.062;7.850;2023-07-08T13:39:01;43.70;49.00
4215;DHT22;2121;48.062;7.850;2023-07-08T13:41:29;43.40;48.50
4215;DHT22;2121;48.062;7.850;2023-07-08T13:43:55;43.60;48.10
4215;DHT22;2121;48.062;7.850;2023-07-08T13:46:37;43.00;48.30
4215;DHT22;2121;48.062;7.850;2023-07-08T13:49:26;42.50;47.90
4215;DHT22;2121;48.062;7.850;2023-07-08T13:54:46;46.00;48.10
4215;DHT22;2121;48.062;7.850;2023-07-08T13:57:17;46.30;44.90
4215;DHT22;2121;48.062;7.850;2023-07-08T13:59:45;46.10;45.30
4215;DHT22;2121;48.062;7.850;2023-07-08T14:02:23;47.30;44.60
4215;DHT22;2121;48.062;7.850;2023-07-08T14:04:51;47.90;43.70
4215;DHT22;2121;48.062;7.850;2023-07-08T14:07:27;47.80;43.20
4215;DHT22;2121;48.062;7.850;2023-07-08T14:09:55;48.80;40.90
4215;DHT22;2121;48.062;7.850;2023-07-08T14:12:21;49.00;39.60
4215;DHT22;2121;48.062;7.850;2023-07-08T14:14:47;47.60;39.30
4215;DHT22;2121;48.062;7.850;2023-07-08T14:17:21;47.00;40.80
4215;DHT22;2121;48.062;7.850;2023-07-08T14:19:49;48.00;41.20
4215;DHT22;2121;48.062;7.850;2023-07-08T14:22:30;49.50;40.60
4215;DHT22;2121;48.062;7.850;2023-07-08T14:25:00;49.10;38.80
4215;DHT22;2121;48.062;7.850;2023-07-08T14:27:30;48.90;39.60
4215;DHT22;2121;48.062;7.850;2023-07-08T14:29:55;48.10;39.70
4215;DHT22;2121;48.062;7.850;2023-07-08T14:32:25;48.80;40.70
4215;DHT22;2121;48.062;7.850;2023-07-08T14:34:57;50.50;39.30
4215;DHT22;2121;48.062;7.850;2023-07-08T14:37:25;51.00;37.20
4215;DHT22;2121;48.062;7.850;2023-07-08T14:39:51;51.40;36.60
4215;DHT22;2121;48.062;7.850;2023-07-08T14:42:19;50.80;36.60
4215;DHT22;2121;48.062;7.850;2023-07-08T14:44:47;50.30;35.30
4215;DHT22;2121;48.062;7.850;2023-07-08T14:47:16;50.00;36.10
4215;DHT22;2121;48.062;7.850;2023-07-08T14:49:43;50.20;35.00
4215;DHT22;2121;48.062;7.850;2023-07-08T14:52:09;48.30;36.50
4215;DHT22;2121;48.062;7.850;2023-07-08T14:54:35;49.00;37.00
4215;DHT22;2121;48.062;7.850;2023-07-08T14:57:02;48.40;35.60
4215;DHT22;2121;48.062;7.850;2023-07-08T14:59:30;46.90;36.90
4215;DHT22;2121;48.062;7.850;2023-07-08T15:01:58;45.50;37.30
4215;DHT22;2121;48.062;7.850;2023-07-08T15:04:25;45.40;38.50
4215;DHT22;2121;48.062;7.850;2023-07-08T15:06:52;46.00;37.70
4215;DHT22;2121;48.062;7.850;2023-07-08T15:09:18;46.30;37.30
4215;DHT22;2121;48.062;7.850;2023-07-08T15:11:45;47.00;37.50
4215;DHT22;2121;48.062;7.850;2023-07-08T15:16:49;48.00;37.20
4215;DHT22;2121;48.062;7.850;2023-07-08T15:19:16;48.40;35.70
4215;DHT22;2121;48.062;7.850;2023-07-08T15:21:43;48.90;36.00
4215;DHT22;2121;48.062;7.850;2023-07-08T15:24:11;48.40;35.30
4215;DHT22;2121;48.062;7.850;2023-07-08T15:26:46;48.70;35.90
4215;DHT22;2121;48.062;7.850;2023-07-08T15:29:16;47.70;34.80
4215;DHT22;2121;48.062;7.850;2023-07-08T15:31:44;47.50;35.70
4215;DHT22;2121;48.062;7.850;2023-07-08T15:34:22;47.90;36.40
4215;DHT22;2121;48.062;7.850;2023-07-08T15:36:48;48.00;36.10
4215;DHT22;2121;48.062;7.850;2023-07-08T15:39:15;49.10;35.60
4215;DHT22;2121;48.062;7.850;2023-07-08T15:41:42;46.60;35.80
4215;DHT22;2121;48.062;7.850;2023-07-08T15:44:13;46.80;36.60
4215;DHT22;2121;48.062;7.850;2023-07-08T15:46:46;47.60;36.40
4215;DHT22;2121;48.062;7.850;2023-07-08T15:49:21;48.00;35.50
4215;DHT22;2121;48.062;7.850;2023-07-08T15:51:53;48.80;34.60
4215;DHT22;2121;48.062;7.850;2023-07-08T15:54:19;48.20;34.70
4215;DHT22;2121;48.062;7.850;2023-07-08T15:56:46;48.70;34.80
4215;DHT22;2121;48.062;7.850;2023-07-08T15:59:18;49.50;34.90
4215;DHT22;2121;48.062;7.850;2023-07-08T16:01:46;50.40;34.10
4215;DHT22;2121;48.062;7.850;2023-07-08T16:04:51;49.50;33.70
4215;DHT22;2121;48.062;7.850;2023-07-08T16:07:10;49.10;34.30
4215;DHT22;2121;48.062;7.850;2023-07-08T16:09:35;48.70;34.40
4215;DHT22;2121;48.062;7.850;2023-07-08T16:12:04;48.10;34.60
4215;DHT22;2121;48.062;7.850;2023-07-08T16:14:30;48.50;35.90
4215;DHT22;2121;48.062;7.850;2023-07-08T16:16:56;49.30;33.40
4215;DHT22;2121;48.062;7.850;2023-07-08T16:19:22;48.40;34.90
4215;DHT22;2121;48.062;7.850;2023-07-08T16:21:48;48.10;35.00
4215;DHT22;2121;48.062;7.850;2023-07-08T16:24:13;47.20;35.60
4215;DHT22;2121;48.062;7.850;2023-07-08T16:26:40;46.10;35.80
4215;DHT22;2121;48.062;7.850;2023-07-08T16:29:07;46.80;36.10
4215;DHT22;2121;48.062;7.850;2023-07-08T16:31:38;47.30;35.20
4215;DHT22;2121;48.062;7.850;2023-07-08T16:34:04;47.80;34.50
4215;DHT22;2121;48.062;7.850;2023-07-08T16:36:30;47.30;35.30
4215;DHT22;2121;48.062;7.850;2023-07-08T16:38:55;46.90;36.80
4215;DHT22;2121;48.062;7.850;2023-07-08T16:41:24;47.50;35.50
4215;DHT22;2121;48.062;7.850;2023-07-08T16:43:51;47.80;35.60
4215;DHT22;2121;48.062;7.850;2023-07-08T16:46:18;47.00;35.30
4215;DHT22;2121;48.062;7.850;2023-07-08T16:48:44;45.70;35.90
4215;DHT22;2121;48.062;7.850;2023-07-08T16:51:30;45.10;36.70
4215;DHT22;2121;48.062;7.850;2023-07-08T16:54:31;44.90;37.20
4215;DHT22;2121;48.062;7.850;2023-07-08T16:56:50;44.20;37.50
4215;DHT22;2121;48.062;7.850;2023-07-08T16:59:16;43.80;38.10
4215;DHT22;2121;48.062;7.850;2023-07-08T17:01:43;42.20;39.00
4215;DHT22;2121;48.062;7.850;2023-07-08T17:04:13;40.60;40.30
4215;DHT22;2121;48.062;7.850;2023-07-08T17:06:40;40.80;40.80
4215;DHT22;2121;48.062;7.850;2023-07-08T17:09:08;42.30;39.50
4215;DHT22;2121;48.062;7.850;2023-07-08T17:11:35;43.50;38.90
4215;DHT22;2121;48.062;7.850;2023-07-08T17:14:00;44.90;38.10
4215;DHT22;2121;48.062;7.850;2023-07-08T17:16:30;45.90;37.40
4215;DHT22;2121;48.062;7.850;2023-07-08T17:18:58;46.50;38.60
4215;DHT22;2121;48.062;7.850;2023-07-08T17:21:24;46.70;37.00
4215;DHT22;2121;48.062;7.850;2023-07-08T17:23:50;45.90;38.10
4215;DHT22;2121;48.062;7.850;2023-07-08T17:26:16;46.60;37.10
4215;DHT22;2121;48.062;7.850;2023-07-08T17:28:42;46.50;38.40
4215;DHT22;2121;48.062;7.850;2023-07-08T17:31:16;47.00;38.00